createdAt,value
2023-04-07T00:00:37.685Z,38.99
2023-04-07T00:01:37.851Z,41.39
2023-04-07T00:02:37.844Z,39.51
2023-04-07T00:03:37.949Z,39.41
2023-04-07T00:04:37.912Z,39.26
2023-04-07T00:05:37.916Z,39.50
2023-04-07T00:06:37.880Z,37.84
2023-04-07T00:07:52.428Z,38.39
2023-04-07T00:08:39.001Z,38.57
2023-04-07T00:09:37.882Z,38.47
2023-04-07T00:10:37.999Z,37.32
2023-04-07T00:11:37.888Z,38.52
2023-04-07T00:12:37.874Z,37.90
2023-04-07T00:13:37.902Z,41.32
2023-04-07T00:14:37.928Z,36.96
2023-04-07T00:15:37.852Z,38.39
2023-04-07T00:16:37.862Z,38.78
2023-04-07T00:17:37.865Z,39.23
2023-04-07T00:18:37.817Z,35.87
2023-04-07T00:19:37.825Z,37.70
2023-04-07T00:20:37.832Z,36.72
2023-04-07T00:21:37.840Z,38.93
2023-04-07T00:22:37.820Z,37.48
2023-04-07T00:23:37.822Z,37.69
2023-04-07T00:24:37.809Z,34.57
2023-04-07T00:25:38.447Z,37.08
2023-04-07T00:26:37.798Z,35.16
2023-04-07T00:27:37.766Z,39.17
2023-04-07T00:28:37.777Z,39.07
2023-04-07T00:29:37.751Z,37.79
2023-04-07T00:30:37.782Z,38.30
2023-04-07T00:31:37.764Z,35.90
2023-04-07T00:32:37.723Z,38.69
2023-04-07T00:33:37.720Z,36.75
2023-04-07T00:34:37.747Z,34.47
2023-04-07T00:35:40.494Z,40.11
2023-04-07T00:36:37.723Z,37.66
2023-04-07T00:37:37.692Z,37.39
2023-04-07T00:38:37.720Z,35.33
2023-04-07T00:39:37.670Z,37.45
2023-04-07T00:40:37.693Z,36.28
2023-04-07T00:41:37.664Z,38.32
2023-04-07T00:42:38.445Z,34.71
2023-04-07T00:43:38.442Z,35.96
2023-04-07T00:44:37.659Z,35.99
2023-04-07T00:45:37.631Z,36.01
2023-04-07T00:46:37.738Z,34.12
2023-04-07T00:47:37.647Z,37.59
2023-04-07T00:48:37.638Z,36.40
2023-04-07T00:49:37.619Z,34.25
2023-04-07T00:50:37.616Z,35.39
2023-04-07T00:51:37.592Z,37.14
2023-04-07T00:52:37.571Z,31.91
2023-04-07T00:53:37.577Z,33.92
2023-04-07T00:54:37.601Z,36.81
2023-04-07T00:55:37.577Z,35.14
2023-04-07T00:56:37.564Z,36.30
2023-04-07T00:57:37.548Z,33.72
2023-04-07T00:58:37.571Z,34.65
2023-04-07T00:59:37.539Z,34.96
2023-04-07T01:00:37.570Z,33.91
2023-04-07T01:01:37.560Z,37.66
2023-04-07T01:02:37.827Z,34.61
2023-04-07T01:03:37.850Z,33.73
2023-04-07T01:04:37.631Z,35.30
2023-04-07T01:05:37.498Z,35.49
2023-04-07T01:06:37.525Z,35.29
2023-04-07T01:07:37.477Z,35.07
2023-04-07T01:08:37.449Z,34.54
2023-04-07T01:09:37.468Z,35.29
2023-04-07T01:10:37.459Z,35.33
2023-04-07T01:11:37.455Z,37.09
2023-04-07T01:12:37.418Z,34.37
2023-04-07T01:13:37.468Z,34.57
2023-04-07T01:14:37.402Z,32.97
2023-04-07T01:15:37.426Z,35.35
2023-04-07T01:16:38.007Z,35.54
2023-04-07T01:17:37.387Z,31.56
2023-04-07T01:18:37.367Z,32.17
2023-04-07T01:19:37.376Z,33.15
2023-04-07T01:20:37.369Z,35.00
2023-04-07T01:21:37.372Z,34.38
2023-04-07T01:22:37.345Z,33.36
2023-04-07T01:23:37.368Z,34.85
2023-04-07T01:24:37.361Z,36.59
2023-04-07T01:25:37.371Z,32.52
2023-04-07T01:26:37.318Z,32.22
2023-04-07T01:27:37.344Z,32.48
2023-04-07T01:28:37.349Z,34.73
2023-04-07T01:29:37.317Z,32.26
2023-04-07T01:30:37.343Z,33.38
2023-04-07T01:31:37.380Z,33.33
2023-04-07T01:32:37.363Z,33.53
2023-04-07T01:33:37.796Z,34.17
2023-04-07T01:34:37.260Z,33.37
2023-04-07T01:35:37.287Z,34.63
2023-04-07T01:36:37.358Z,33.66
2023-04-07T01:37:37.269Z,31.96
2023-04-07T01:38:37.254Z,33.64
2023-04-07T01:39:37.254Z,35.37
2023-04-07T01:40:37.228Z,32.62
2023-04-07T01:41:37.238Z,33.65
2023-04-07T01:42:37.210Z,30.01
2023-04-07T01:43:37.230Z,34.44
2023-04-07T01:44:37.203Z,35.06
2023-04-07T01:45:37.223Z,34.04
2023-04-07T01:46:37.225Z,34.02
2023-04-07T01:47:37.310Z,33.79
2023-04-07T01:48:37.182Z,35.60
2023-04-07T01:49:37.195Z,34.05
2023-04-07T01:50:37.189Z,31.63
2023-04-07T01:51:37.179Z,33.78
2023-04-07T01:52:37.166Z,32.15
2023-04-07T01:53:37.163Z,32.80
2023-04-07T01:54:37.135Z,32.52
2023-04-07T01:55:37.156Z,34.60
2023-04-07T01:56:37.120Z,30.34
2023-04-07T01:57:37.130Z,31.38
2023-04-07T01:58:37.157Z,33.56
2023-04-07T01:59:37.153Z,34.30
2023-04-07T02:00:37.101Z,33.37
2023-04-07T02:01:37.315Z,34.03
2023-04-07T02:02:37.201Z,33.68
2023-04-07T02:03:37.202Z,32.21
2023-04-07T02:04:37.069Z,33.00
2023-04-07T02:05:37.073Z,34.78
2023-04-07T02:06:37.100Z,32.03
2023-04-07T02:07:37.103Z,33.43
2023-04-07T02:08:37.057Z,31.90
2023-04-07T02:09:37.043Z,32.16
2023-04-07T02:10:37.038Z,33.18
2023-04-07T02:11:37.040Z,31.71
2023-04-07T02:12:37.021Z,34.06
2023-04-07T02:13:37.003Z,34.59
2023-04-07T02:14:37.041Z,32.79
2023-04-07T02:15:37.056Z,32.81
2023-04-07T02:16:37.110Z,31.73
2023-04-07T02:17:37.034Z,30.71
2023-04-07T02:18:36.969Z,32.66
2023-04-07T02:19:37.005Z,33.34
2023-04-07T02:20:37.001Z,30.07
2023-04-07T02:21:36.965Z,32.85
2023-04-07T02:22:36.937Z,32.60
2023-04-07T02:23:36.943Z,29.78
2023-04-07T02:24:36.975Z,31.76
2023-04-07T02:25:36.995Z,30.48
2023-04-07T02:26:36.964Z,30.91
2023-04-07T02:27:36.907Z,33.01
2023-04-07T02:28:36.893Z,32.92
2023-04-07T02:29:36.919Z,31.10
2023-04-07T02:30:36.908Z,32.53
2023-04-07T02:31:36.943Z,31.84
2023-04-07T02:32:36.979Z,30.64
2023-04-07T02:33:36.879Z,31.16
2023-04-07T02:34:36.900Z,32.96
2023-04-07T02:35:36.917Z,32.95
2023-04-07T02:36:36.954Z,30.93
2023-04-07T02:37:36.869Z,31.18
2023-04-07T02:38:36.852Z,31.09
2023-04-07T02:39:36.828Z,31.68
2023-04-07T02:40:36.829Z,31.98
2023-04-07T02:41:36.801Z,31.41
2023-04-07T02:42:36.826Z,31.67
2023-04-07T02:43:36.816Z,30.27
2023-04-07T02:44:36.812Z,30.72
2023-04-07T02:45:36.860Z,31.45
2023-04-07T02:46:36.871Z,30.32
2023-04-07T02:47:36.822Z,30.64
2023-04-07T02:48:36.783Z,31.26
2023-04-07T02:49:36.742Z,31.13
2023-04-07T02:50:36.787Z,31.52
2023-04-07T02:51:36.804Z,32.86
2023-04-07T02:52:36.734Z,30.68
2023-04-07T02:53:36.714Z,31.33
2023-04-07T02:54:36.774Z,31.79
2023-04-07T02:55:36.779Z,31.08
2023-04-07T02:56:36.744Z,31.67
2023-04-07T02:57:36.713Z,29.83
2023-04-07T02:58:36.759Z,28.14
2023-04-07T02:59:36.715Z,30.44
2023-04-07T03:00:36.699Z,29.58
2023-04-07T03:01:36.923Z,30.31
2023-04-07T03:02:37.641Z,31.82
2023-04-07T03:03:36.725Z,30.53
2023-04-07T03:04:36.686Z,29.59
2023-04-07T03:05:36.638Z,30.08
2023-04-07T03:06:36.647Z,29.70
2023-04-07T03:07:36.624Z,30.99
2023-04-07T03:08:36.653Z,31.68
2023-04-07T03:09:36.627Z,27.50
2023-04-07T03:10:36.966Z,29.61
2023-04-07T03:11:36.629Z,29.37
2023-04-07T03:12:36.569Z,30.59
2023-04-07T03:13:36.580Z,31.59
2023-04-07T03:14:36.574Z,29.35
2023-04-07T03:15:36.620Z,30.32
2023-04-07T03:16:37.525Z,32.57
2023-04-07T03:17:36.625Z,29.86
2023-04-07T03:18:36.581Z,28.17
2023-04-07T03:19:36.586Z,29.30
2023-04-07T03:20:36.547Z,29.17
2023-04-07T03:21:36.544Z,29.71
2023-04-07T03:22:36.616Z,32.01
2023-04-07T03:23:36.545Z,28.74
2023-04-07T03:24:36.554Z,28.62
2023-04-07T03:25:36.518Z,29.93
2023-04-07T03:26:37.522Z,29.54
2023-04-07T03:27:36.519Z,29.89
2023-04-07T03:28:36.494Z,29.59
2023-04-07T03:29:36.486Z,27.14
2023-04-07T03:30:36.601Z,27.06
2023-04-07T03:31:36.474Z,31.25
2023-04-07T03:32:36.518Z,30.37
2023-04-07T03:33:36.470Z,29.64
2023-04-07T03:34:36.491Z,30.39
2023-04-07T03:35:36.618Z,30.19
2023-04-07T03:36:36.496Z,26.77
2023-04-07T03:37:36.544Z,27.01
2023-04-07T03:38:36.566Z,29.50
2023-04-07T03:39:36.589Z,29.59
2023-04-07T03:40:36.608Z,28.47
2023-04-07T03:41:36.607Z,30.60
2023-04-07T03:42:36.680Z,30.25
2023-04-07T03:43:36.611Z,31.40
2023-04-07T03:44:36.617Z,29.07
2023-04-07T03:45:36.666Z,30.49
2023-04-07T03:46:36.688Z,27.24
2023-04-07T03:47:36.715Z,27.88
2023-04-07T03:48:36.669Z,27.31
2023-04-07T03:49:36.671Z,30.94
2023-04-07T03:50:36.719Z,30.20
2023-04-07T03:51:36.727Z,28.94
2023-04-07T03:52:36.729Z,29.97
2023-04-07T03:53:36.735Z,26.58
2023-04-07T03:54:36.802Z,29.68
2023-04-07T03:55:36.749Z,30.20
2023-04-07T03:56:36.775Z,28.24
2023-04-07T03:57:36.778Z,26.01
2023-04-07T03:58:36.822Z,27.22
2023-04-07T03:59:36.806Z,28.43
2023-04-07T04:00:36.819Z,26.94
2023-04-07T04:01:36.898Z,28.30
2023-04-07T04:02:36.909Z,28.17
2023-04-07T04:03:37.021Z,27.42
2023-04-07T04:04:36.896Z,27.64
2023-04-07T04:05:36.918Z,27.03
2023-04-07T04:06:36.935Z,28.66
2023-04-07T04:07:36.894Z,29.28
2023-04-07T04:08:36.929Z,30.21
2023-04-07T04:09:36.946Z,28.95
2023-04-07T04:10:36.958Z,28.41
2023-04-07T04:11:36.972Z,27.49
2023-04-07T04:12:36.977Z,28.23
2023-04-07T04:13:37.038Z,31.22
2023-04-07T04:14:37.009Z,28.01
2023-04-07T04:15:37.040Z,27.95
2023-04-07T04:16:38.010Z,26.45
2023-04-07T04:17:37.098Z,27.69
2023-04-07T04:18:37.051Z,27.31
2023-04-07T04:19:37.090Z,27.55
2023-04-07T04:20:37.088Z,26.17
2023-04-07T04:21:37.092Z,25.28
2023-04-07T04:22:37.145Z,26.98
2023-04-07T04:23:37.157Z,26.85
2023-04-07T04:24:37.157Z,27.65
2023-04-07T04:25:37.197Z,27.89
2023-04-07T04:26:37.214Z,30.50
2023-04-07T04:27:37.218Z,29.35
2023-04-07T04:28:38.500Z,27.87
2023-04-07T04:29:37.230Z,27.87
2023-04-07T04:30:37.281Z,26.29
2023-04-07T04:31:37.296Z,26.55
2023-04-07T04:32:37.293Z,25.75
2023-04-07T04:33:37.307Z,27.80
2023-04-07T04:34:37.340Z,29.24
2023-04-07T04:35:37.394Z,26.29
2023-04-07T04:36:38.584Z,27.54
2023-04-07T04:37:37.417Z,30.45
2023-04-07T04:38:39.057Z,27.28
2023-04-07T04:39:37.460Z,27.00
2023-04-07T04:40:37.431Z,29.04
2023-04-07T04:41:37.529Z,29.04
2023-04-07T04:42:37.489Z,28.63
2023-04-07T04:43:37.478Z,26.08
2023-04-07T04:44:37.525Z,27.72
2023-04-07T04:45:37.564Z,29.94
2023-04-07T04:46:37.607Z,26.57
2023-04-07T04:47:37.644Z,28.51
2023-04-07T04:48:37.614Z,27.90
2023-04-07T04:49:37.630Z,29.17
2023-04-07T04:50:37.647Z,27.71
2023-04-07T04:51:37.691Z,27.99
2023-04-07T04:52:37.686Z,28.85
2023-04-07T04:53:37.670Z,31.10
2023-04-07T04:54:37.719Z,32.43
2023-04-07T04:55:37.769Z,29.66
2023-04-07T04:56:37.728Z,32.05
2023-04-07T04:57:37.744Z,28.97
2023-04-07T04:58:37.809Z,27.98
2023-04-07T04:59:38.639Z,29.01
2023-04-07T05:00:37.849Z,29.08
2023-04-07T05:01:37.831Z,29.31
2023-04-07T05:02:38.031Z,27.49
2023-04-07T05:03:38.119Z,27.69
2023-04-07T05:04:37.989Z,27.91
2023-04-07T05:05:37.870Z,29.49
2023-04-07T05:06:37.939Z,27.81
2023-04-07T05:07:39.036Z,26.72
2023-04-07T05:08:37.972Z,26.39
2023-04-07T05:09:38.011Z,27.97
2023-04-07T05:10:37.989Z,28.38
2023-04-07T05:11:39.007Z,26.85
2023-04-07T05:12:38.062Z,29.22
2023-04-07T05:13:38.079Z,27.65
2023-04-07T05:14:38.088Z,30.49
2023-04-07T05:15:38.127Z,27.29
2023-04-07T05:16:38.149Z,30.70
2023-04-07T05:17:38.201Z,27.14
2023-04-07T05:18:38.179Z,27.13
2023-04-07T05:19:38.192Z,28.53
2023-04-07T05:20:38.254Z,27.19
2023-04-07T05:21:38.286Z,28.96
2023-04-07T05:22:38.293Z,28.93
2023-04-07T05:23:38.301Z,29.40
2023-04-07T05:24:38.329Z,26.51
2023-04-07T05:25:38.368Z,28.17
2023-04-07T05:26:38.348Z,30.05
2023-04-07T05:27:38.377Z,28.78
2023-04-07T05:28:38.450Z,29.14
2023-04-07T05:29:38.442Z,31.33
2023-04-07T05:30:38.399Z,31.75
2023-04-07T05:31:38.433Z,31.89
2023-04-07T05:32:38.427Z,34.54
2023-04-07T05:33:38.447Z,34.66
2023-04-07T05:34:38.462Z,35.29
2023-04-07T05:35:38.489Z,36.39
2023-04-07T05:36:38.454Z,34.37
2023-04-07T05:37:38.461Z,33.48
2023-04-07T05:38:38.427Z,36.17
2023-04-07T05:39:38.463Z,35.62
2023-04-07T05:40:38.464Z,37.86
2023-04-07T05:41:38.440Z,39.68
2023-04-07T05:42:38.467Z,38.12
2023-04-07T05:43:38.542Z,42.01
2023-04-07T05:44:38.542Z,40.48
2023-04-07T05:45:38.663Z,37.95
2023-04-07T05:46:38.701Z,38.83
2023-04-07T05:47:38.718Z,41.07
2023-04-07T05:48:38.803Z,41.06
2023-04-07T05:49:38.837Z,42.46
2023-04-07T05:50:38.874Z,42.29
2023-04-07T05:51:38.952Z,39.70
2023-04-07T05:52:39.541Z,41.23
2023-04-07T05:53:39.069Z,40.72
2023-04-07T05:54:39.085Z,40.86
2023-04-07T05:55:39.177Z,40.60
2023-04-07T05:56:39.183Z,41.87
2023-04-07T05:57:39.280Z,41.11
2023-04-07T05:58:39.366Z,41.38
2023-04-07T05:59:39.384Z,39.73
2023-04-07T06:00:39.448Z,38.38
2023-04-07T06:01:39.591Z,39.78
2023-04-07T06:02:39.631Z,41.45
2023-04-07T06:03:39.697Z,40.43
2023-04-07T06:04:39.698Z,40.40
2023-04-07T06:05:39.760Z,40.34
2023-04-07T06:06:39.821Z,39.20
2023-04-07T06:07:39.921Z,41.01
2023-04-07T06:08:39.947Z,41.76
2023-04-07T06:09:39.997Z,41.40
2023-04-07T06:10:40.061Z,42.09
2023-04-07T06:11:40.115Z,41.90
2023-04-07T06:12:40.189Z,41.73
2023-04-07T06:13:40.255Z,40.51
2023-04-07T06:14:40.285Z,40.81
2023-04-07T06:15:40.365Z,43.56
2023-04-07T06:16:40.481Z,39.96
2023-04-07T06:17:40.533Z,41.52
2023-04-07T06:18:40.573Z,39.69
2023-04-07T06:19:40.588Z,41.74
2023-04-07T06:20:40.676Z,42.51
2023-04-07T06:21:40.714Z,41.82
2023-04-07T06:22:40.788Z,40.00
2023-04-07T06:23:40.849Z,39.83
2023-04-07T06:24:40.873Z,41.88
2023-04-07T06:25:40.964Z,40.56
2023-04-07T06:26:41.525Z,42.55
2023-04-07T06:27:41.033Z,39.92
2023-04-07T06:28:42.033Z,39.08
2023-04-07T06:29:41.133Z,40.68
2023-04-07T06:30:41.249Z,41.51
2023-04-07T06:31:41.264Z,41.13
2023-04-07T06:32:41.362Z,40.70
2023-04-07T06:33:41.357Z,39.58
2023-04-07T06:34:41.425Z,41.78
2023-04-07T06:35:41.493Z,39.48
2023-04-07T06:36:41.548Z,39.52
2023-04-07T06:37:41.586Z,39.24
2023-04-07T06:38:41.644Z,35.04
2023-04-07T06:39:41.664Z,41.57
2023-04-07T06:40:41.732Z,39.18
2023-04-07T06:41:41.761Z,39.76
2023-04-07T06:42:41.833Z,39.47
2023-04-07T06:43:41.918Z,35.80
2023-04-07T06:44:41.903Z,38.10
2023-04-07T06:45:41.964Z,41.54
2023-04-07T06:46:42.097Z,39.23
2023-04-07T06:47:42.128Z,39.07
2023-04-07T06:48:42.138Z,39.99
2023-04-07T06:49:42.162Z,41.84
2023-04-07T06:50:42.296Z,38.54
2023-04-07T06:51:42.527Z,40.58
2023-04-07T06:52:42.314Z,36.24
2023-04-07T06:53:42.382Z,37.66
2023-04-07T06:54:42.398Z,38.15
2023-04-07T06:55:42.482Z,35.91
2023-04-07T06:56:42.487Z,35.38
2023-04-07T06:57:42.558Z,39.10
2023-04-07T06:58:42.592Z,38.52
2023-04-07T06:59:42.660Z,45.35
2023-04-07T07:00:42.701Z,34.10
2023-04-07T07:01:42.858Z,33.56
2023-04-07T07:02:42.930Z,41.70
2023-04-07T07:03:42.978Z,40.30
2023-04-07T07:04:42.854Z,40.99
2023-04-07T07:05:42.918Z,38.39
2023-04-07T07:06:42.948Z,37.46
2023-04-07T07:07:42.980Z,39.80
2023-04-07T07:08:43.025Z,34.73
2023-04-07T07:09:43.046Z,35.43
2023-04-07T07:10:43.136Z,35.89
2023-04-07T07:11:43.129Z,31.54
2023-04-07T07:12:43.164Z,36.84
2023-04-07T07:13:43.204Z,39.64
2023-04-07T07:14:44.080Z,36.45
2023-04-07T07:15:43.609Z,42.63
2023-04-07T07:16:43.329Z,37.62
2023-04-07T07:17:43.307Z,43.99
2023-04-07T07:18:43.306Z,37.84
2023-04-07T07:19:43.392Z,41.24
2023-04-07T07:20:43.411Z,34.96
2023-04-07T07:21:43.426Z,43.90
2023-04-07T07:22:43.460Z,42.64
2023-04-07T07:23:43.759Z,36.76
2023-04-07T07:24:43.481Z,36.07
2023-04-07T07:25:43.489Z,36.65
2023-04-07T07:26:44.588Z,41.68
2023-04-07T07:27:43.533Z,42.59
2023-04-07T07:28:43.553Z,39.96
2023-04-07T07:29:43.566Z,37.68
2023-04-07T07:30:43.680Z,36.88
2023-04-07T07:31:43.560Z,37.59
2023-04-07T07:32:43.611Z,40.86
2023-04-07T07:33:44.263Z,41.32
2023-04-07T07:34:43.583Z,36.55
2023-04-07T07:35:44.564Z,38.66
2023-04-07T07:36:43.548Z,40.96
2023-04-07T07:37:43.584Z,41.06
2023-04-07T07:38:43.546Z,40.40
2023-04-07T07:39:43.552Z,38.64
2023-04-07T07:40:43.585Z,39.02
2023-04-07T07:41:43.591Z,41.04
2023-04-07T07:42:43.615Z,39.95
2023-04-07T07:43:43.695Z,43.91
2023-04-07T07:44:43.693Z,43.94
2023-04-07T07:45:43.795Z,45.91
2023-04-07T07:46:43.937Z,41.95
2023-04-07T07:47:43.964Z,45.79
2023-04-07T07:48:43.934Z,42.46
2023-04-07T07:49:43.992Z,47.67
2023-04-07T07:50:44.017Z,47.62
2023-04-07T07:51:44.029Z,46.26
2023-04-07T07:52:44.439Z,45.52
2023-04-07T07:53:44.123Z,46.14
2023-04-07T07:54:44.144Z,47.47
2023-04-07T07:55:44.202Z,49.15
2023-04-07T07:56:44.240Z,50.20
2023-04-07T07:57:44.241Z,51.08
2023-04-07T07:58:44.331Z,49.04
2023-04-07T07:59:44.395Z,51.65
2023-04-07T08:00:44.361Z,49.29
2023-04-07T08:01:44.417Z,49.37
2023-04-07T08:02:44.491Z,48.52
2023-04-07T08:03:44.521Z,49.19
2023-04-07T08:04:44.486Z,50.29
2023-04-07T08:05:44.504Z,43.75
2023-04-07T08:06:44.511Z,47.27
2023-04-07T08:07:44.599Z,48.63
2023-04-07T08:08:44.550Z,45.38
2023-04-07T08:09:44.620Z,44.03
2023-04-07T08:10:44.641Z,45.62
2023-04-07T08:11:44.660Z,45.09
2023-04-07T08:12:44.680Z,45.27
2023-04-07T08:13:44.698Z,47.14
2023-04-07T08:14:44.725Z,41.66
2023-04-07T08:15:44.820Z,44.18
2023-04-07T08:16:44.983Z,44.27
2023-04-07T08:17:44.843Z,46.54
2023-04-07T08:18:44.855Z,44.20
2023-04-07T08:19:44.871Z,46.22
2023-04-07T08:20:44.897Z,45.63
2023-04-07T08:21:44.911Z,44.71
2023-04-07T08:22:44.976Z,46.32
2023-04-07T08:23:45.000Z,46.94
2023-04-07T08:24:45.006Z,46.04
2023-04-07T08:25:44.996Z,46.98
2023-04-07T08:26:45.037Z,44.72
2023-04-07T08:27:45.059Z,45.60
2023-04-07T08:28:45.096Z,47.20
2023-04-07T08:29:45.150Z,48.00
2023-04-07T08:30:45.074Z,48.98
2023-04-07T08:31:45.160Z,48.09
2023-04-07T08:32:45.148Z,46.24
2023-04-07T08:33:45.212Z,49.28
2023-04-07T08:34:45.136Z,48.68
2023-04-07T08:35:45.145Z,48.99
2023-04-07T08:36:45.125Z,51.64
2023-04-07T08:37:45.144Z,49.58
2023-04-07T08:38:45.129Z,48.28
2023-04-07T08:39:45.168Z,47.50
2023-04-07T08:40:45.170Z,49.28
2023-04-07T08:41:45.164Z,49.64
2023-04-07T08:42:46.106Z,48.08
2023-04-07T08:43:45.182Z,47.65
2023-04-07T08:44:45.220Z,47.32
2023-04-07T08:45:45.137Z,45.81
2023-04-07T08:46:45.177Z,46.08
2023-04-07T08:47:45.212Z,44.38
2023-04-07T08:48:45.150Z,47.10
2023-04-07T08:49:45.160Z,44.67
2023-04-07T08:50:45.201Z,42.58
2023-04-07T08:51:45.166Z,40.68
2023-04-07T08:52:45.161Z,42.78
2023-04-07T08:53:45.186Z,43.87
2023-04-07T08:54:45.140Z,41.71
2023-04-07T08:55:45.115Z,44.48
2023-04-07T08:56:45.151Z,43.79
2023-04-07T08:57:45.147Z,43.49
2023-04-07T08:58:45.147Z,43.23
2023-04-07T08:59:45.150Z,40.46
2023-04-07T09:00:45.193Z,40.13
2023-04-07T09:01:45.190Z,40.87
2023-04-07T09:02:45.227Z,42.55
2023-04-07T09:03:45.308Z,44.36
2023-04-07T09:04:45.206Z,43.26
2023-04-07T09:05:45.682Z,39.66
2023-04-07T09:06:45.156Z,42.23
2023-04-07T09:07:45.169Z,40.84
2023-04-07T09:08:45.204Z,39.96
2023-04-07T09:09:45.164Z,42.51
2023-04-07T09:10:45.161Z,41.26
2023-04-07T09:11:45.182Z,39.55
2023-04-07T09:12:45.205Z,43.06
2023-04-07T09:13:45.166Z,43.56
2023-04-07T09:14:45.187Z,41.28
2023-04-07T09:15:45.148Z,43.55
2023-04-07T09:16:45.156Z,42.28
2023-04-07T09:17:45.214Z,42.35
2023-04-07T09:18:45.156Z,41.21
2023-04-07T09:19:45.623Z,39.91
2023-04-07T09:20:45.189Z,41.33
2023-04-07T09:21:45.139Z,39.54
2023-04-07T09:22:45.126Z,39.32
2023-04-07T09:23:45.147Z,41.36
2023-04-07T09:24:45.158Z,37.01
2023-04-07T09:25:48.119Z,41.11
2023-04-07T09:26:45.137Z,40.58
2023-04-07T09:27:45.121Z,40.02
2023-04-07T09:28:45.178Z,41.34
2023-04-07T09:29:45.100Z,37.96
2023-04-07T09:30:45.150Z,38.37
2023-04-07T09:31:45.153Z,41.02
2023-04-07T09:32:45.170Z,39.16
2023-04-07T09:33:45.196Z,40.62
2023-04-07T09:34:45.105Z,37.95
2023-04-07T09:35:45.107Z,43.30
2023-04-07T09:36:45.035Z,40.25
2023-04-07T09:37:45.105Z,40.75
2023-04-07T09:38:45.053Z,41.50
2023-04-07T09:39:45.068Z,41.29
2023-04-07T09:40:45.091Z,39.77
2023-04-07T09:41:45.111Z,37.49
2023-04-07T09:42:45.007Z,41.09
2023-04-07T09:43:45.077Z,40.81
2023-04-07T09:44:45.006Z,40.82
2023-04-07T09:45:45.062Z,38.48
2023-04-07T09:46:45.121Z,39.44
2023-04-07T09:47:44.996Z,38.20
2023-04-07T09:48:44.974Z,38.49
2023-04-07T09:49:44.982Z,38.10
2023-04-07T09:50:45.051Z,39.10
2023-04-07T09:51:44.995Z,38.18
2023-04-07T09:52:44.952Z,35.25
2023-04-07T09:53:44.960Z,39.85
2023-04-07T09:54:44.942Z,37.75
2023-04-07T09:55:44.971Z,35.20
2023-04-07T09:56:44.899Z,34.25
2023-04-07T09:57:47.638Z,35.88
2023-04-07T09:58:44.916Z,36.01
2023-04-07T09:59:45.184Z,35.95
2023-04-07T10:00:44.950Z,35.99
2023-04-07T10:01:45.009Z,31.89
2023-04-07T10:02:44.945Z,32.89
2023-04-07T10:03:45.002Z,32.01
2023-04-07T10:04:44.859Z,30.33
2023-04-07T10:05:44.857Z,32.88
2023-04-07T10:06:44.847Z,31.38
2023-04-07T10:07:44.868Z,30.81
2023-04-07T10:08:44.832Z,25.64
2023-04-07T10:09:44.878Z,29.30
2023-04-07T10:10:44.828Z,28.57
2023-04-07T10:11:44.974Z,30.74
2023-04-07T10:12:44.794Z,29.60
2023-04-07T10:13:44.821Z,28.00
2023-04-07T10:14:44.816Z,28.95
2023-04-07T10:15:44.786Z,30.40
2023-04-07T10:16:44.921Z,29.93
2023-04-07T10:17:44.812Z,30.43
2023-04-07T10:18:44.786Z,30.40
2023-04-07T10:19:44.783Z,28.88
2023-04-07T10:20:44.786Z,28.03
2023-04-07T10:21:44.743Z,27.68
2023-04-07T10:22:44.759Z,30.59
2023-04-07T10:23:44.771Z,29.28
2023-04-07T10:24:44.720Z,25.75
2023-04-07T10:25:44.766Z,28.66
2023-04-07T10:26:44.755Z,25.00
2023-04-07T10:27:44.714Z,29.71
2023-04-07T10:28:44.697Z,31.00
2023-04-07T10:29:44.736Z,30.32
2023-04-07T10:30:44.746Z,32.66
2023-04-07T10:31:44.680Z,30.92
2023-04-07T10:32:44.745Z,29.92
2023-04-07T10:33:44.681Z,30.75
2023-04-07T10:34:44.656Z,30.58
2023-04-07T10:35:45.197Z,25.00
2023-04-07T10:36:44.687Z,27.10
2023-04-07T10:37:44.695Z,29.00
2023-04-07T10:38:44.651Z,31.24
2023-04-07T10:39:44.700Z,28.30
2023-04-07T10:40:45.660Z,32.42
2023-04-07T10:41:44.625Z,31.68
2023-04-07T10:42:44.628Z,29.65
2023-04-07T10:43:44.686Z,29.76
2023-04-07T10:44:44.667Z,30.40
2023-04-07T10:45:44.622Z,29.86
2023-04-07T10:46:44.679Z,29.53
2023-04-07T10:47:44.677Z,28.40
2023-04-07T10:48:44.593Z,30.73
2023-04-07T10:49:44.600Z,29.77
2023-04-07T10:50:44.583Z,28.93
2023-04-07T10:51:44.536Z,30.01
2023-04-07T10:52:44.555Z,27.73
2023-04-07T10:53:44.518Z,28.30
2023-04-07T10:54:44.516Z,29.31
2023-04-07T10:55:44.586Z,25.56
2023-04-07T10:56:45.206Z,28.58
2023-04-07T10:57:44.504Z,29.63
2023-04-07T10:58:44.506Z,30.95
2023-04-07T10:59:44.486Z,27.81
2023-04-07T11:00:44.522Z,26.14
2023-04-07T11:01:44.537Z,28.24
2023-04-07T11:02:44.789Z,29.17
2023-04-07T11:03:44.490Z,26.44
2023-04-07T11:04:44.623Z,28.04
2023-04-07T11:05:44.452Z,27.32
2023-04-07T11:06:44.453Z,26.51
2023-04-07T11:07:44.422Z,25.01
2023-04-07T11:08:46.729Z,27.83
2023-04-07T11:09:44.419Z,28.09
2023-04-07T11:10:44.437Z,28.44
2023-04-07T11:11:44.407Z,28.63
2023-04-07T11:12:44.379Z,29.62
2023-04-07T11:13:44.425Z,29.56
2023-04-07T11:14:44.397Z,27.42
2023-04-07T11:15:44.375Z,27.00
2023-04-07T11:16:44.376Z,27.09
2023-04-07T11:17:44.388Z,29.85
2023-04-07T11:18:44.382Z,29.87
2023-04-07T11:19:44.333Z,28.09
2023-04-07T11:20:46.101Z,27.44
2023-04-07T11:21:44.351Z,30.54
2023-04-07T11:22:44.360Z,29.85
2023-04-07T11:23:44.312Z,27.76
2023-04-07T11:24:44.338Z,29.33
2023-04-07T11:25:44.311Z,26.93
2023-04-07T11:26:44.313Z,28.33
2023-04-07T11:27:44.286Z,26.81
2023-04-07T11:28:44.310Z,28.87
2023-04-07T11:29:44.303Z,29.49
2023-04-07T11:30:44.286Z,32.12
2023-04-07T11:31:44.330Z,27.15
2023-04-07T11:32:44.277Z,28.60
2023-04-07T11:33:44.292Z,27.66
2023-04-07T11:34:44.280Z,26.39
2023-04-07T11:35:44.340Z,29.74
2023-04-07T11:36:44.331Z,27.23
2023-04-07T11:37:44.376Z,29.26
2023-04-07T11:38:45.430Z,30.27
2023-04-07T11:39:44.605Z,30.31
2023-04-07T11:40:44.673Z,28.13
2023-04-07T11:41:44.708Z,27.82
2023-04-07T11:42:44.748Z,28.22
2023-04-07T11:43:44.816Z,29.44
2023-04-07T11:44:44.833Z,29.43
2023-04-07T11:45:44.863Z,30.41
2023-04-07T11:46:44.938Z,30.85
2023-04-07T11:47:45.003Z,28.43
2023-04-07T11:48:44.985Z,28.58
2023-04-07T11:49:45.037Z,31.46
2023-04-07T11:50:45.095Z,30.10
2023-04-07T11:51:45.110Z,28.75
2023-04-07T11:52:45.128Z,27.47
2023-04-07T11:53:45.176Z,28.21
2023-04-07T11:54:45.218Z,29.25
2023-04-07T11:55:45.315Z,28.28
2023-04-07T11:56:45.353Z,29.25
2023-04-07T11:57:45.325Z,26.95
2023-04-07T11:58:45.397Z,25.90
2023-04-07T11:59:45.423Z,25.66
2023-04-07T12:00:45.499Z,27.46
2023-04-07T12:01:45.573Z,27.42
2023-04-07T12:02:45.753Z,28.21
2023-04-07T12:03:45.734Z,27.11
2023-04-07T12:04:45.692Z,27.18
2023-04-07T12:05:45.685Z,29.19
2023-04-07T12:06:45.708Z,27.03
2023-04-07T12:07:45.738Z,25.22
2023-04-07T12:08:45.802Z,28.06
2023-04-07T12:09:45.821Z,27.04
2023-04-07T12:10:45.885Z,28.57
2023-04-07T12:11:45.897Z,27.54
2023-04-07T12:12:45.952Z,30.54
2023-04-07T12:13:46.019Z,28.06
2023-04-07T12:14:46.030Z,27.24
2023-04-07T12:15:46.144Z,30.00
2023-04-07T12:16:46.170Z,30.33
2023-04-07T12:17:46.205Z,28.13
2023-04-07T12:18:46.215Z,29.10
2023-04-07T12:19:46.270Z,29.67
2023-04-07T12:20:46.300Z,30.77
2023-04-07T12:21:46.353Z,29.46
2023-04-07T12:22:46.378Z,28.10
2023-04-07T12:23:46.580Z,27.72
2023-04-07T12:24:46.478Z,29.73
2023-04-07T12:25:46.547Z,29.12
2023-04-07T12:26:46.596Z,31.10
2023-04-07T12:27:46.638Z,28.77
2023-04-07T12:28:46.692Z,25.00
2023-04-07T12:29:46.739Z,31.15
2023-04-07T12:30:46.797Z,32.35
2023-04-07T12:31:49.416Z,31.16
2023-04-07T12:32:46.872Z,33.03
2023-04-07T12:33:47.090Z,31.75
2023-04-07T12:34:46.909Z,31.25
2023-04-07T12:35:46.919Z,31.65
2023-04-07T12:36:46.818Z,33.74
2023-04-07T12:37:48.352Z,33.78
2023-04-07T12:38:46.822Z,33.85
2023-04-07T12:39:46.806Z,30.68
2023-04-07T12:40:46.790Z,32.91
2023-04-07T12:41:46.781Z,30.32
2023-04-07T12:42:46.792Z,33.46
2023-04-07T12:43:47.205Z,30.67
2023-04-07T12:44:46.801Z,31.94
2023-04-07T12:45:46.830Z,32.07
2023-04-07T12:46:46.756Z,28.73
2023-04-07T12:47:46.756Z,32.19
2023-04-07T12:48:46.735Z,30.07
2023-04-07T12:49:48.558Z,34.20
2023-04-07T12:50:46.727Z,34.36
2023-04-07T12:51:46.788Z,32.98
2023-04-07T12:52:46.723Z,32.98